createdAt,value
2019-03-26T00:00:10.474Z,45.77
2019-03-26T00:01:10.474Z,45.67
2019-03-26T00:02:10.482Z,45.67
2019-03-26T00:03:10.451Z,45.57
2019-03-26T00:04:10.435Z,45.57
2019-03-26T00:05:10.465Z,45.67
2019-03-26T00:06:10.416Z,45.67
2019-03-26T00:07:10.399Z,45.67
2019-03-26T00:08:10.392Z,45.77
2019-03-26T00:09:10.382Z,45.77
2019-03-26T00:10:10.409Z,45.77
2019-03-26T00:11:10.356Z,45.77
2019-03-26T00:12:10.353Z,45.67
2019-03-26T00:13:10.332Z,45.67
2019-03-26T00:14:10.321Z,45.67
2019-03-26T00:15:10.354Z,45.67
2019-03-26T00:16:10.301Z,45.67
2019-03-26T00:17:10.287Z,45.67
2019-03-26T00:18:10.276Z,45.77
2019-03-26T00:19:10.274Z,45.77
2019-03-26T00:20:10.303Z,45.67
2019-03-26T00:21:10.243Z,45.77
2019-03-26T00:22:10.240Z,45.67
2019-03-26T00:23:10.220Z,45.67
2019-03-26T00:24:10.210Z,45.77
2019-03-26T00:25:10.239Z,45.77
2019-03-26T00:26:10.192Z,45.87
2019-03-26T00:27:10.183Z,45.77
2019-03-26T00:28:10.168Z,45.77
2019-03-26T00:29:10.164Z,45.77
2019-03-26T00:30:10.177Z,45.87
2019-03-26T00:31:10.139Z,45.87
2019-03-26T00:32:10.124Z,45.87
2019-03-26T00:33:10.115Z,45.77
2019-03-26T00:34:19.237Z,45.77
2019-03-26T00:35:11.089Z,45.77
2019-03-26T00:36:10.085Z,45.77
2019-03-26T00:37:10.101Z,45.77
2019-03-26T00:38:10.062Z,45.77
2019-03-26T00:39:10.078Z,45.77
2019-03-26T00:40:10.038Z,45.77
2019-03-26T00:41:10.026Z,45.77
2019-03-26T00:42:10.048Z,45.77
2019-03-26T00:43:10.007Z,45.77
2019-03-26T00:44:10.028Z,45.77
2019-03-26T00:45:09.980Z,45.77
2019-03-26T00:46:09.967Z,45.77
2019-03-26T00:47:09.957Z,45.77
2019-03-26T00:48:09.950Z,45.77
2019-03-26T00:49:09.963Z,45.77
2019-03-26T00:50:09.925Z,45.77
2019-03-26T00:51:09.949Z,45.77
2019-03-26T00:52:09.925Z,45.77
2019-03-26T00:53:09.892Z,45.77
2019-03-26T00:54:09.880Z,45.77
2019-03-26T00:55:22.099Z,45.77
2019-03-26T00:56:10.890Z,45.77
2019-03-26T00:57:09.874Z,45.77
2019-03-26T00:58:09.835Z,45.77
2019-03-26T00:59:09.828Z,45.77
2019-03-26T01:00:09.813Z,45.77
2019-03-26T01:01:09.834Z,45.77
2019-03-26T01:02:09.788Z,45.77
2019-03-26T01:03:09.813Z,45.77
2019-03-26T01:04:09.776Z,45.77
2019-03-26T01:05:09.765Z,45.77
2019-03-26T01:06:09.746Z,45.77
2019-03-26T01:07:09.744Z,45.77
2019-03-26T01:08:09.756Z,45.87
2019-03-26T01:09:09.716Z,45.87
2019-03-26T01:10:09.707Z,45.87
2019-03-26T01:11:09.691Z,45.77
2019-03-26T01:12:09.682Z,45.77
2019-03-26T01:13:09.702Z,45.77
2019-03-26T01:14:09.666Z,45.77
2019-03-26T01:15:09.669Z,45.77
2019-03-26T01:16:09.643Z,45.77
2019-03-26T01:17:09.625Z,45.77
2019-03-26T01:18:09.646Z,45.77
2019-03-26T01:19:09.607Z,45.77
2019-03-26T01:20:24.520Z,45.77
2019-03-26T01:21:09.584Z,45.77
2019-03-26T01:22:09.580Z,45.77
2019-03-26T01:23:09.584Z,45.67
2019-03-26T01:24:09.549Z,45.67
2019-03-26T01:25:09.554Z,45.67
2019-03-26T01:26:09.538Z,45.77
2019-03-26T01:27:09.551Z,45.77
2019-03-26T01:28:09.517Z,45.87
2019-03-26T01:29:09.500Z,45.77
2019-03-26T01:30:09.485Z,45.77
2019-03-26T01:31:09.503Z,45.77
2019-03-26T01:32:09.461Z,45.77
2019-03-26T01:33:09.452Z,45.77
2019-03-26T01:34:09.439Z,45.77
2019-03-26T01:35:09.433Z,45.77
2019-03-26T01:36:09.556Z,45.77
2019-03-26T01:37:09.408Z,45.77
2019-03-26T01:38:09.413Z,45.77
2019-03-26T01:39:09.386Z,45.77
2019-03-26T01:40:09.410Z,45.67
2019-03-26T01:41:09.408Z,45.67
2019-03-26T01:42:09.357Z,45.67
2019-03-26T01:43:09.340Z,45.67
2019-03-26T01:44:09.332Z,45.77
2019-03-26T01:45:09.321Z,45.87
2019-03-26T01:46:09.354Z,45.87
2019-03-26T01:47:09.295Z,45.77
2019-03-26T01:48:09.307Z,45.87
2019-03-26T01:49:09.275Z,45.87
2019-03-26T01:50:09.262Z,45.77
2019-03-26T01:51:09.298Z,45.77
2019-03-26T01:52:09.246Z,45.77
2019-03-26T01:53:09.228Z,45.87
2019-03-26T01:54:09.226Z,45.77
2019-03-26T01:55:09.214Z,45.77
2019-03-26T01:56:09.238Z,45.77
2019-03-26T01:57:09.212Z,45.67
2019-03-26T01:58:09.187Z,45.67
2019-03-26T01:59:09.166Z,45.67
2019-03-26T02:00:09.157Z,45.77
2019-03-26T02:01:09.173Z,45.77
2019-03-26T02:02:09.133Z,45.67
2019-03-26T02:03:09.123Z,45.67
2019-03-26T02:04:09.137Z,45.77
2019-03-26T02:05:09.105Z,45.67
2019-03-26T02:06:09.091Z,45.77
2019-03-26T02:07:09.079Z,45.77
2019-03-26T02:08:09.065Z,45.77
2019-03-26T02:09:09.083Z,45.77
2019-03-26T02:10:09.045Z,45.67
2019-03-26T02:11:09.052Z,45.67
2019-03-26T02:12:09.023Z,45.67
2019-03-26T02:13:09.009Z,45.77
2019-03-26T02:14:09.026Z,45.87
2019-03-26T02:15:08.986Z,45.87
2019-03-26T02:16:08.982Z,45.77
2019-03-26T02:17:09.015Z,45.77
2019-03-26T02:18:08.952Z,45.77
2019-03-26T02:19:08.947Z,45.67
2019-03-26T02:20:08.943Z,45.67
2019-03-26T02:21:08.927Z,45.67
2019-03-26T02:22:08.956Z,45.57
2019-03-26T02:23:08.900Z,45.67
2019-03-26T02:24:08.900Z,45.57
2019-03-26T02:25:08.894Z,45.67
2019-03-26T02:26:08.867Z,45.67
2019-03-26T02:27:08.899Z,45.67
2019-03-26T02:28:08.846Z,45.67
2019-03-26T02:29:08.837Z,45.57
2019-03-26T02:30:08.824Z,45.57
2019-03-26T02:31:08.817Z,45.57
2019-03-26T02:32:08.835Z,45.57
2019-03-26T02:33:08.792Z,45.57
2019-03-26T02:34:08.793Z,45.47
2019-03-26T02:35:17.636Z,45.47
2019-03-26T02:36:09.800Z,45.47
2019-03-26T02:37:08.748Z,45.47
2019-03-26T02:38:08.736Z,45.47
2019-03-26T02:39:08.723Z,45.47
2019-03-26T02:40:08.717Z,45.47
2019-03-26T02:41:08.715Z,45.37
2019-03-26T02:42:08.722Z,45.37
2019-03-26T02:43:08.679Z,45.37
2019-03-26T02:44:08.671Z,45.37
2019-03-26T02:45:08.661Z,45.47
2019-03-26T02:46:08.648Z,45.47
2019-03-26T02:47:08.665Z,45.47
2019-03-26T02:48:08.628Z,45.47
2019-03-26T02:49:08.614Z,45.47
2019-03-26T02:50:08.620Z,45.47
2019-03-26T02:51:08.647Z,45.37
2019-03-26T02:52:08.582Z,45.37
2019-03-26T02:53:09.126Z,45.37
2019-03-26T02:54:08.563Z,45.26
2019-03-26T02:55:08.599Z,45.26
2019-03-26T02:56:08.539Z,45.37
2019-03-26T02:57:08.552Z,45.39
2019-03-26T02:58:08.514Z,45.47
2019-03-26T02:59:08.510Z,45.37
2019-03-26T03:00:08.525Z,45.37
2019-03-26T03:01:08.495Z,45.37
2019-03-26T03:02:08.470Z,45.47
2019-03-26T03:03:08.464Z,45.47
2019-03-26T03:04:08.452Z,45.47
2019-03-26T03:05:08.486Z,45.47
2019-03-26T03:06:08.428Z,45.47
2019-03-26T03:07:08.421Z,45.47
2019-03-26T03:08:08.410Z,45.47
2019-03-26T03:09:08.402Z,45.47
2019-03-26T03:10:08.428Z,45.37
2019-03-26T03:11:08.379Z,45.37
2019-03-26T03:12:08.364Z,45.37
2019-03-26T03:13:08.355Z,45.37
2019-03-26T03:14:08.340Z,45.37
2019-03-26T03:15:08.370Z,45.37
2019-03-26T03:16:08.324Z,45.37
2019-03-26T03:17:08.313Z,45.26
2019-03-26T03:18:08.295Z,45.26
2019-03-26T03:19:08.286Z,45.26
2019-03-26T03:20:08.301Z,45.37
2019-03-26T03:21:08.266Z,45.26
2019-03-26T03:22:08.290Z,45.37
2019-03-26T03:23:08.247Z,45.26
2019-03-26T03:24:08.232Z,45.26
2019-03-26T03:25:08.251Z,45.29
2019-03-26T03:26:08.236Z,45.26
2019-03-26T03:27:08.202Z,45.29
2019-03-26T03:28:08.194Z,45.26
2019-03-26T03:29:08.190Z,45.26
2019-03-26T03:30:08.201Z,45.29
2019-03-26T03:31:08.197Z,45.26
2019-03-26T03:32:08.178Z,45.29
2019-03-26T03:33:08.134Z,45.26
2019-03-26T03:34:08.131Z,45.26
2019-03-26T03:35:08.116Z,45.26
2019-03-26T03:36:08.139Z,45.29
2019-03-26T03:37:08.094Z,45.29
2019-03-26T03:38:08.087Z,45.18
2019-03-26T03:39:08.069Z,45.17
2019-03-26T03:40:08.055Z,45.29
2019-03-26T03:41:08.086Z,45.26
2019-03-26T03:42:08.072Z,45.29
2019-03-26T03:43:08.042Z,45.26
2019-03-26T03:44:08.015Z,45.26
2019-03-26T03:45:08.005Z,45.26
2019-03-26T03:46:07.991Z,45.29
2019-03-26T03:47:08.015Z,45.37
2019-03-26T03:48:07.970Z,45.39
2019-03-26T03:49:07.992Z,45.39
2019-03-26T03:50:07.956Z,45.39
2019-03-26T03:51:07.948Z,45.39
2019-03-26T03:52:07.930Z,45.39
2019-03-26T03:53:07.941Z,45.39
2019-03-26T03:54:07.942Z,45.29
2019-03-26T03:55:07.894Z,45.29
2019-03-26T03:56:07.916Z,45.29
2019-03-26T03:57:07.883Z,45.29
2019-03-26T03:58:07.861Z,45.29
2019-03-26T03:59:07.885Z,45.29
2019-03-26T04:00:07.847Z,45.18
2019-03-26T04:01:07.870Z,45.17
2019-03-26T04:02:07.823Z,45.18
2019-03-26T04:03:07.818Z,45.18
2019-03-26T04:04:07.818Z,45.29
2019-03-26T04:05:07.796Z,45.29
2019-03-26T04:06:09.851Z,45.26
2019-03-26T04:07:07.768Z,45.29
2019-03-26T04:08:07.756Z,45.29
2019-03-26T04:09:07.746Z,45.29
2019-03-26T04:10:07.735Z,45.39
2019-03-26T04:11:07.762Z,45.39
2019-03-26T04:12:07.715Z,45.39
2019-03-26T04:13:07.701Z,45.39
2019-03-26T04:14:07.693Z,45.29
2019-03-26T04:15:07.682Z,45.29
2019-03-26T04:16:07.711Z,45.29
2019-03-26T04:17:07.684Z,45.29
2019-03-26T04:18:07.659Z,45.29
2019-03-26T04:19:07.640Z,45.39
2019-03-26T04:20:07.624Z,45.29
2019-03-26T04:21:07.620Z,45.29
2019-03-26T04:22:07.633Z,45.18
2019-03-26T04:23:07.590Z,45.18
2019-03-26T04:24:07.603Z,45.18
2019-03-26T04:25:07.571Z,45.18
2019-03-26T04:26:07.560Z,45.18
2019-03-26T04:27:07.549Z,45.09
2019-03-26T04:28:07.547Z,45.09
2019-03-26T04:29:07.568Z,45.09
2019-03-26T04:30:07.520Z,45.18
2019-03-26T04:31:07.504Z,45.18
2019-03-26T04:32:07.529Z,45.18
2019-03-26T04:33:07.491Z,45.18
2019-03-26T04:34:07.501Z,45.29
2019-03-26T04:35:07.470Z,45.29
2019-03-26T04:36:24.167Z,45.18
2019-03-26T04:37:08.481Z,45.18
2019-03-26T04:38:07.425Z,45.18
2019-03-26T04:39:07.453Z,45.18
2019-03-26T04:40:07.406Z,45.18
2019-03-26T04:41:07.422Z,45.18
2019-03-26T04:42:07.386Z,45.18
2019-03-26T04:43:07.374Z,45.18
2019-03-26T04:44:07.362Z,45.18
2019-03-26T04:45:07.353Z,45.18
2019-03-26T04:46:07.372Z,45.18
2019-03-26T04:47:07.325Z,45.18
2019-03-26T04:48:07.316Z,45.18
2019-03-26T04:49:07.329Z,45.18
2019-03-26T04:50:07.300Z,45.18
2019-03-26T04:51:07.326Z,45.18
2019-03-26T04:52:07.271Z,45.18
2019-03-26T04:53:07.295Z,45.18
2019-03-26T04:54:07.257Z,45.18
2019-03-26T04:55:07.241Z,45.18
2019-03-26T04:56:07.235Z,45.09
2019-03-26T04:57:07.251Z,45.18
2019-03-26T04:58:07.212Z,45.18
2019-03-26T04:59:07.201Z,45.18
2019-03-26T05:00:07.221Z,45.18
2019-03-26T05:01:07.180Z,45.09
2019-03-26T05:02:07.181Z,45.09
2019-03-26T05:03:07.158Z,45.09
2019-03-26T05:04:07.151Z,45.09
2019-03-26T05:05:07.165Z,44.99
2019-03-26T05:06:07.122Z,44.99
2019-03-26T05:07:07.110Z,45.09
2019-03-26T05:08:07.137Z,45.09
2019-03-26T05:09:07.093Z,45.09
2019-03-26T05:10:07.079Z,45.09
2019-03-26T05:11:07.071Z,45.09
2019-03-26T05:12:07.077Z,44.99
2019-03-26T05:13:07.072Z,44.99
2019-03-26T05:14:07.035Z,44.99
2019-03-26T05:15:07.024Z,44.99
2019-03-26T05:16:07.021Z,44.99
2019-03-26T05:17:07.007Z,44.99
2019-03-26T05:18:07.026Z,44.99
2019-03-26T05:19:06.987Z,44.99
2019-03-26T05:20:06.971Z,44.99
2019-03-26T05:21:06.965Z,44.99
2019-03-26T05:22:06.996Z,45.09
2019-03-26T05:23:06.973Z,45.09
2019-03-26T05:24:06.969Z,45.09
2019-03-26T05:25:06.914Z,44.96
2019-03-26T05:26:06.903Z,44.96
2019-03-26T05:27:06.919Z,44.96
2019-03-26T05:28:06.880Z,44.96
2019-03-26T05:29:06.904Z,44.87
2019-03-26T05:30:06.862Z,44.87
2019-03-26T05:31:06.853Z,44.87
2019-03-26T05:32:06.841Z,44.76
2019-03-26T05:33:06.855Z,44.76
2019-03-26T05:34:06.819Z,44.67
2019-03-26T05:35:06.815Z,44.67
2019-03-26T05:36:06.797Z,44.67
2019-03-26T05:37:06.781Z,44.56
2019-03-26T05:38:06.798Z,44.56
2019-03-26T05:39:06.758Z,44.54
2019-03-26T05:40:06.754Z,44.54
2019-03-26T05:41:06.741Z,44.54
2019-03-26T05:42:06.729Z,44.44
2019-03-26T05:43:06.750Z,44.44
2019-03-26T05:44:06.709Z,44.44
2019-03-26T05:45:06.704Z,44.44
2019-03-26T05:46:06.681Z,44.44
2019-03-26T05:47:06.672Z,44.44
2019-03-26T05:48:06.703Z,44.44
2019-03-26T05:49:06.656Z,44.44
2019-03-26T05:50:06.646Z,44.44
2019-03-26T05:51:06.632Z,44.44
2019-03-26T05:52:06.621Z,44.44
2019-03-26T05:53:06.640Z,44.44
2019-03-26T05:54:06.603Z,44.44
2019-03-26T05:55:06.590Z,44.44
2019-03-26T05:56:06.587Z,44.44
2019-03-26T05:57:06.600Z,44.44
2019-03-26T05:58:06.580Z,44.44
2019-03-26T05:59:06.549Z,44.44
2019-03-26T06:00:06.534Z,44.44
2019-03-26T06:01:06.521Z,44.44
2019-03-26T06:02:14.139Z,44.54
2019-03-26T06:03:07.556Z,44.54
2019-03-26T06:04:06.492Z,44.54
2019-03-26T06:05:06.482Z,44.54
2019-03-26T06:06:06.471Z,44.54
2019-03-26T06:07:06.494Z,44.54
2019-03-26T06:08:06.469Z,44.44
2019-03-26T06:09:06.439Z,44.44
2019-03-26T06:10:06.430Z,44.54
2019-03-26T06:11:06.448Z,44.54
2019-03-26T06:12:06.406Z,44.54
2019-03-26T06:13:06.399Z,44.54
2019-03-26T06:14:06.380Z,44.54
2019-03-26T06:15:06.406Z,44.54
2019-03-26T06:16:06.361Z,44.64
2019-03-26T06:17:06.384Z,44.64
2019-03-26T06:18:06.384Z,44.64
2019-03-26T06:19:06.336Z,44.64
2019-03-26T06:20:06.369Z,44.64
2019-03-26T06:21:06.318Z,44.74
2019-03-26T06:22:06.292Z,44.64
2019-03-26T06:23:06.315Z,44.64
2019-03-26T06:24:06.275Z,44.74
2019-03-26T06:25:06.262Z,44.74
2019-03-26T06:26:06.252Z,44.76
2019-03-26T06:27:06.237Z,44.76
2019-03-26T06:28:06.263Z,44.76
2019-03-26T06:29:06.219Z,44.76
2019-03-26T06:30:06.236Z,44.87
2019-03-26T06:31:06.211Z,44.87
2019-03-26T06:32:06.186Z,44.87
2019-03-26T06:33:06.177Z,44.87
2019-03-26T06:34:06.160Z,44.87
2019-03-26T06:35:06.185Z,44.87
2019-03-26T06:36:06.143Z,44.87
2019-03-26T06:37:17.381Z,44.87
2019-03-26T06:38:07.145Z,44.87
2019-03-26T06:39:06.110Z,44.96
2019-03-26T06:40:06.095Z,44.96
2019-03-26T06:41:06.124Z,44.96
2019-03-26T06:42:06.074Z,44.96
2019-03-26T06:43:06.088Z,44.96
2019-03-26T06:44:06.055Z,44.96
2019-03-26T06:45:06.048Z,44.96
2019-03-26T06:46:06.060Z,45.06
2019-03-26T06:47:06.025Z,44.96
2019-03-26T06:48:06.017Z,44.96
2019-03-26T06:49:06.003Z,44.87
2019-03-26T06:50:05.990Z,44.87
2019-03-26T06:51:06.035Z,44.87
2019-03-26T06:52:05.965Z,44.76
2019-03-26T06:53:05.962Z,44.76
2019-03-26T06:54:05.952Z,44.76
2019-03-26T06:55:05.931Z,44.76
2019-03-26T06:56:05.965Z,44.76
2019-03-26T06:57:05.915Z,44.76
2019-03-26T06:58:05.905Z,44.76
2019-03-26T06:59:05.892Z,44.76
2019-03-26T07:00:07.306Z,44.76
2019-03-26T07:01:05.899Z,44.67
2019-03-26T07:02:05.860Z,44.67
2019-03-26T07:03:05.846Z,44.67
2019-03-26T07:04:05.862Z,44.67
2019-03-26T07:05:05.825Z,44.67
2019-03-26T07:06:05.858Z,44.56
2019-03-26T07:07:05.805Z,44.56
2019-03-26T07:08:05.794Z,44.56
2019-03-26T07:09:05.788Z,44.56
2019-03-26T07:10:05.768Z,44.56
2019-03-26T07:11:05.803Z,44.56
2019-03-26T07:12:07.822Z,44.56
2019-03-26T07:13:05.764Z,44.56
2019-03-26T07:14:05.739Z,44.46
2019-03-26T07:15:05.719Z,44.46
2019-03-26T07:16:05.710Z,44.46
2019-03-26T07:17:05.722Z,44.46
2019-03-26T07:18:05.713Z,44.46
2019-03-26T07:19:05.675Z,44.46
2019-03-26T07:20:05.669Z,44.46
2019-03-26T07:21:05.652Z,44.46
2019-03-26T07:22:05.643Z,44.46
2019-03-26T07:23:08.373Z,44.46
2019-03-26T07:24:05.629Z,44.46
2019-03-26T07:25:05.615Z,44.46
2019-03-26T07:26:05.599Z,44.46
2019-03-26T07:27:05.608Z,44.36
2019-03-26T07:28:05.606Z,44.36
2019-03-26T07:29:05.597Z,44.36
2019-03-26T07:30:05.560Z,44.36
2019-03-26T07:31:05.544Z,44.36
2019-03-26T07:32:05.533Z,44.36
2019-03-26T07:33:05.525Z,44.34
2019-03-26T07:34:07.212Z,44.34
2019-03-26T07:35:05.507Z,44.34
2019-03-26T07:36:05.497Z,44.34
2019-03-26T07:37:05.488Z,44.34
2019-03-26T07:38:05.476Z,44.34
2019-03-26T07:39:05.486Z,44.34
2019-03-26T07:40:05.513Z,44.36
2019-03-26T07:41:05.441Z,44.34
2019-03-26T07:42:05.426Z,44.36
2019-03-26T07:43:05.418Z,44.36
2019-03-26T07:44:05.411Z,44.36
2019-03-26T07:45:05.424Z,44.34
2019-03-26T07:46:05.383Z,44.26
2019-03-26T07:47:05.373Z,44.26
2019-03-26T07:48:05.363Z,44.26
2019-03-26T07:49:05.361Z,44.26
2019-03-26T07:50:05.394Z,44.26
2019-03-26T07:51:05.407Z,44.24
2019-03-26T07:52:05.324Z,44.26
2019-03-26T07:53:05.311Z,44.26
2019-03-26T07:54:05.309Z,44.26
2019-03-26T07:55:05.442Z,44.26
2019-03-26T07:56:05.281Z,44.26
2019-03-26T07:57:05.272Z,44.16
2019-03-26T07:58:05.258Z,44.24
2019-03-26T07:59:05.247Z,44.24
2019-03-26T08:00:05.304Z,44.24
2019-03-26T08:01:05.226Z,44.16
2019-03-26T08:02:05.217Z,44.16
2019-03-26T08:03:05.208Z,44.14
2019-03-26T08:04:05.198Z,44.16
2019-03-26T08:05:05.223Z,44.16
2019-03-26T08:06:05.169Z,44.14
2019-03-26T08:07:05.161Z,44.16
2019-03-26T08:08:05.152Z,44.16
2019-03-26T08:09:05.144Z,44.16
2019-03-26T08:10:05.186Z,44.16
2019-03-26T08:11:05.121Z,44.16
2019-03-26T08:12:05.109Z,44.16
2019-03-26T08:13:05.131Z,44.16
2019-03-26T08:14:05.113Z,44.16
2019-03-26T08:15:05.121Z,44.16
2019-03-26T08:16:05.093Z,44.16
2019-03-26T08:17:05.095Z,44.14
2019-03-26T08:18:05.042Z,44.16
2019-03-26T08:19:05.033Z,44.16
2019-03-26T08:20:05.058Z,44.14
2019-03-26T08:21:05.015Z,44.14
2019-03-26T08:22:05.003Z,44.14
2019-03-26T08:23:05.014Z,44.14
2019-03-26T08:24:05.007Z,44.14
2019-03-26T08:25:04.966Z,44.14
2019-03-26T08:26:04.961Z,44.14
2019-03-26T08:27:04.950Z,44.14
2019-03-26T08:28:05.454Z,44.14
2019-03-26T08:29:04.926Z,44.14
2019-03-26T08:30:04.921Z,44.14
2019-03-26T08:31:04.904Z,44.14
2019-03-26T08:32:04.894Z,44.16
2019-03-26T08:33:04.934Z,44.14
2019-03-26T08:34:04.869Z,44.14
2019-03-26T08:35:04.862Z,44.14
2019-03-26T08:36:04.856Z,44.14
2019-03-26T08:37:04.838Z,44.14
2019-03-26T08:38:12.518Z,44.14
2019-03-26T08:39:05.816Z,44.14
2019-03-26T08:40:04.806Z,44.14
2019-03-26T08:41:04.803Z,44.24
2019-03-26T08:42:04.787Z,44.24
2019-03-26T08:43:04.805Z,44.24
2019-03-26T08:44:04.770Z,44.14
2019-03-26T08:45:04.794Z,44.14
2019-03-26T08:46:04.769Z,44.24
2019-03-26T08:47:04.738Z,44.34
2019-03-26T08:48:04.726Z,44.44
2019-03-26T08:49:04.712Z,44.54
2019-03-26T08:50:04.749Z,44.54
2019-03-26T08:51:04.688Z,44.84
2019-03-26T08:52:04.683Z,44.84
2019-03-26T08:53:04.673Z,44.74
2019-03-26T08:54:04.656Z,44.74
2019-03-26T08:55:04.681Z,44.64
2019-03-26T08:56:04.642Z,44.67
2019-03-26T08:57:04.627Z,44.54
2019-03-26T08:58:04.649Z,44.67
2019-03-26T08:59:04.613Z,44.74
2019-03-26T09:00:04.590Z,44.84
2019-03-26T09:01:04.590Z,44.95
2019-03-26T09:02:04.605Z,44.87
2019-03-26T09:03:04.564Z,44.76
2019-03-26T09:04:04.555Z,44.76
2019-03-26T09:05:04.547Z,44.76
2019-03-26T09:06:04.537Z,44.76
2019-03-26T09:07:04.547Z,44.87
2019-03-26T09:08:04.542Z,44.76
2019-03-26T09:09:04.515Z,44.76
2019-03-26T09:10:04.489Z,44.76
2019-03-26T09:11:04.472Z,44.76
2019-03-26T09:12:04.495Z,44.87
2019-03-26T09:13:04.492Z,45.06
2019-03-26T09:14:04.444Z,45.06
2019-03-26T09:15:04.438Z,44.96
2019-03-26T09:16:04.421Z,44.96
2019-03-26T09:17:04.411Z,44.87
2019-03-26T09:18:04.444Z,44.87
2019-03-26T09:19:04.386Z,44.87
2019-03-26T09:20:04.377Z,44.87
2019-03-26T09:21:04.367Z,44.87
2019-03-26T09:22:04.360Z,44.96
2019-03-26T09:23:04.382Z,44.96
2019-03-26T09:24:04.367Z,45.06
2019-03-26T09:25:04.324Z,45.06
2019-03-26T09:26:04.314Z,45.04
2019-03-26T09:27:04.304Z,45.06
2019-03-26T09:28:04.293Z,44.95
2019-03-26T09:29:04.314Z,45.04
2019-03-26T09:30:04.273Z,44.95
2019-03-26T09:31:04.258Z,45.04
2019-03-26T09:32:04.263Z,45.04
2019-03-26T09:33:04.240Z,45.14
2019-03-26T09:34:04.261Z,45.14
2019-03-26T09:35:04.221Z,45.14
2019-03-26T09:36:04.208Z,45.14
2019-03-26T09:37:04.220Z,45.25
2019-03-26T09:38:04.188Z,45.25
2019-03-26T09:39:04.174Z,45.25
2019-03-26T09:40:04.165Z,45.25
2019-03-26T09:41:04.149Z,45.25
2019-03-26T09:42:04.270Z,45.25
2019-03-26T09:43:04.130Z,45.14
2019-03-26T09:44:04.116Z,45.14
2019-03-26T09:45:04.107Z,45.14
2019-03-26T09:46:04.093Z,45.14
2019-03-26T09:47:15.559Z,45.14
2019-03-26T09:48:05.073Z,45.25
2019-03-26T09:49:04.065Z,45.45
2019-03-26T09:50:04.050Z,45.34
2019-03-26T09:51:04.043Z,45.45
2019-03-26T09:52:04.094Z,45.34
2019-03-26T09:53:04.024Z,45.34
2019-03-26T09:54:04.012Z,45.25
2019-03-26T09:55:04.019Z,45.25
2019-03-26T09:56:03.992Z,45.25
2019-03-26T09:57:04.015Z,45.25
2019-03-26T09:58:03.971Z,45.25
2019-03-26T09:59:03.961Z,45.25
2019-03-26T10:00:03.944Z,45.25
2019-03-26T10:01:03.932Z,45.25
2019-03-26T10:02:03.949Z,45.25
2019-03-26T10:03:03.909Z,45.14
2019-03-26T10:04:03.900Z,45.14
2019-03-26T10:05:03.941Z,45.14
2019-03-26T10:06:03.882Z,45.14
2019-03-26T10:07:03.874Z,45.12
2019-03-26T10:08:03.886Z,45.12
2019-03-26T10:09:03.880Z,45.12
2019-03-26T10:10:03.836Z,45.12
2019-03-26T10:11:03.824Z,45.12
2019-03-26T10:12:03.813Z,45.02
2019-03-26T10:13:03.838Z,45.02
2019-03-26T10:14:03.793Z,45.02
2019-03-26T10:15:03.790Z,45.02
2019-03-26T10:16:03.803Z,44.92
2019-03-26T10:17:03.765Z,44.92
2019-03-26T10:18:03.800Z,44.92
2019-03-26T10:19:03.740Z,44.92
2019-03-26T10:20:03.734Z,44.92
2019-03-26T10:21:03.723Z,44.92
2019-03-26T10:22:03.712Z,44.92
2019-03-26T10:23:03.730Z,44.92
2019-03-26T10:24:03.688Z,44.92
2019-03-26T10:25:03.680Z,44.92
2019-03-26T10:26:03.667Z,44.92
2019-03-26T10:27:03.655Z,44.92
2019-03-26T10:28:03.684Z,44.92
2019-03-26T10:29:18.790Z,44.92
2019-03-26T10:30:05.892Z,44.92
2019-03-26T10:31:03.611Z,44.82
2019-03-26T10:32:03.598Z,44.82
2019-03-26T10:33:03.591Z,44.82
2019-03-26T10:34:03.582Z,44.62
2019-03-26T10:35:03.576Z,44.62
2019-03-26T10:36:03.586Z,44.62
2019-03-26T10:37:03.549Z,44.62
2019-03-26T10:38:03.535Z,44.52
2019-03-26T10:39:05.543Z,44.52
2019-03-26T10:40:03.513Z,44.52
2019-03-26T10:41:03.541Z,44.52
2019-03-26T10:42:06.834Z,44.32
2019-03-26T10:43:03.477Z,44.32
2019-03-26T10:44:03.467Z,44.32
2019-03-26T10:45:03.455Z,44.32
2019-03-26T10:46:03.478Z,44.32
2019-03-26T10:47:03.468Z,44.32
2019-03-26T10:48:03.423Z,44.32
2019-03-26T10:49:03.420Z,44.42
2019-03-26T10:50:03.408Z,44.42
2019-03-26T10:51:03.413Z,44.42
2019-03-26T10:52:03.409Z,44.32
2019-03-26T10:53:03.386Z,44.32
2019-03-26T10:54:03.361Z,44.32
2019-03-26T10:55:03.357Z,44.42
2019-03-26T10:56:03.368Z,44.42
2019-03-26T10:57:03.329Z,44.42
2019-03-26T10:58:03.319Z,44.32
2019-03-26T10:59:04.251Z,44.32
2019-03-26T11:00:03.296Z,44.32
2019-03-26T11:01:03.341Z,44.22
2019-03-26T11:02:03.276Z,44.22
2019-03-26T11:03:03.304Z,44.22
2019-03-26T11:04:03.262Z,44.22
2019-03-26T11:05:03.249Z,44.12
2019-03-26T11:06:03.233Z,44.12
2019-03-26T11:07:03.223Z,44.22
2019-03-26T11:08:03.263Z,44.22
2019-03-26T11:09:03.203Z,44.22
2019-03-26T11:10:03.208Z,44.22
2019-03-26T11:11:03.189Z,44.22
2019-03-26T11:12:03.167Z,44.22
2019-03-26T11:13:03.304Z,44.22
2019-03-26T11:14:03.161Z,44.22
2019-03-26T11:15:03.139Z,44.22
2019-03-26T11:16:03.121Z,44.22
2019-03-26T11:17:03.110Z,44.22
2019-03-26T11:18:03.144Z,44.12
2019-03-26T11:19:03.092Z,44.12
2019-03-26T11:20:03.078Z,44.12
2019-03-26T11:21:03.484Z,44.12
2019-03-26T11:22:03.063Z,44.12
2019-03-26T11:23:03.180Z,44.12
2019-03-26T11:24:03.057Z,44.12
2019-03-26T11:25:03.030Z,44.12
2019-03-26T11:26:03.019Z,44.12
2019-03-26T11:27:03.003Z,44.12
2019-03-26T11:28:03.029Z,44.22
2019-03-26T11:29:02.984Z,44.22
2019-03-26T11:30:03.005Z,44.32
2019-03-26T11:31:02.973Z,44.22
2019-03-26T11:32:02.971Z,44.22
2019-03-26T11:33:02.937Z,44.12
2019-03-26T11:34:02.969Z,44.02
2019-03-26T11:35:02.919Z,44.02
2019-03-26T11:36:02.939Z,44.02
2019-03-26T11:37:02.900Z,44.02
2019-03-26T11:38:02.884Z,44.02
2019-03-26T11:39:02.879Z,44.02
2019-03-26T11:40:02.864Z,43.92
2019-03-26T11:41:02.883Z,43.92
2019-03-26T11:42:02.840Z,43.82
2019-03-26T11:43:02.829Z,43.82
2019-03-26T11:44:04.691Z,43.82
2019-03-26T11:45:02.812Z,43.72
2019-03-26T11:46:02.828Z,43.72
2019-03-26T11:47:02.791Z,43.72
2019-03-26T11:48:02.808Z,43.82
2019-03-26T11:49:02.763Z,43.82
2019-03-26T11:50:04.773Z,43.82
2019-03-26T11:51:02.742Z,43.72
2019-03-26T11:52:02.732Z,43.72
2019-03-26T11:53:02.768Z,43.72
2019-03-26T11:54:02.714Z,43.72
2019-03-26T11:55:02.700Z,43.82
2019-03-26T11:56:02.690Z,43.82
2019-03-26T11:57:02.679Z,43.82
2019-03-26T11:58:02.701Z,43.82
2019-03-26T11:59:02.682Z,43.82
2019-03-26T12:00:02.646Z,43.82
2019-03-26T12:01:02.634Z,43.82
2019-03-26T12:02:02.624Z,43.82
2019-03-26T12:03:02.617Z,43.82
2019-03-26T12:04:02.632Z,43.72
2019-03-26T12:05:02.617Z,43.72
2019-03-26T12:06:02.581Z,43.72
2019-03-26T12:07:02.575Z,43.62
2019-03-26T12:08:02.560Z,43.62
2019-03-26T12:09:02.577Z,43.62
2019-03-26T12:10:02.564Z,43.62
2019-03-26T12:11:02.528Z,43.72
2019-03-26T12:12:02.541Z,43.72
2019-03-26T12:13:02.509Z,43.72
2019-03-26T12:14:02.495Z,43.72
2019-03-26T12:15:02.480Z,43.72
2019-03-26T12:16:02.472Z,43.72
2019-03-26T12:17:02.487Z,43.72
2019-03-26T12:18:02.456Z,43.72
2019-03-26T12:19:02.438Z,43.72
2019-03-26T12:20:02.450Z,43.72
2019-03-26T12:21:02.451Z,43.72
2019-03-26T12:22:02.447Z,43.62
2019-03-26T12:23:02.400Z,43.72
2019-03-26T12:24:02.384Z,43.72
2019-03-26T12:25:02.379Z,43.62
2019-03-26T12:26:02.366Z,43.72
2019-03-26T12:27:02.380Z,43.62
2019-03-26T12:28:02.337Z,43.52
2019-03-26T12:29:02.336Z,43.52
2019-03-26T12:30:02.319Z,43.62
2019-03-26T12:31:02.311Z,43.52
2019-03-26T12:32:02.328Z,43.52
2019-03-26T12:33:02.289Z,43.52
2019-03-26T12:34:02.274Z,43.52
2019-03-26T12:35:02.275Z,43.52
2019-03-26T12:36:02.251Z,43.52
2019-03-26T12:37:02.291Z,43.52
2019-03-26T12:38:02.233Z,43.52
2019-03-26T12:39:02.228Z,43.52
2019-03-26T12:40:02.219Z,43.52
2019-03-26T12:41:02.201Z,43.52
2019-03-26T12:42:02.239Z,43.52
2019-03-26T12:43:02.185Z,43.52
2019-03-26T12:44:02.179Z,43.52
2019-03-26T12:45:02.164Z,43.52
2019-03-26T12:46:02.199Z,43.52
2019-03-26T12:47:02.293Z,43.32
2019-03-26T12:48:02.177Z,43.32
2019-03-26T12:49:02.202Z,43.32
2019-03-26T12:50:02.201Z,43.32
2019-03-26T12:51:02.100Z,43.42
2019-03-26T12:52:02.089Z,43.32